createdAt,value
2022-12-29T00:01:14.969Z,0.50
2022-12-29T00:03:43.591Z,0.70
2022-12-29T00:06:12.414Z,0.30
2022-12-29T00:08:42.297Z,0.50
2022-12-29T00:11:12.408Z,0.40
2022-12-29T00:13:58.988Z,0.55
2022-12-29T00:16:28.217Z,0.50
2022-12-29T00:18:56.813Z,0.35
2022-12-29T00:21:44.003Z,0.40
2022-12-29T00:24:34.536Z,0.40
2022-12-29T00:27:31.440Z,0.47
2022-12-29T00:30:18.017Z,0.40
2022-12-29T00:33:03.674Z,0.30
2022-12-29T00:35:36.612Z,0.30
2022-12-29T00:38:26.915Z,0.43
2022-12-29T00:41:13.871Z,0.50
2022-12-29T00:44:00.131Z,0.40
2022-12-29T00:46:28.352Z,0.30
2022-12-29T00:49:14.026Z,0.40
2022-12-29T00:51:42.238Z,0.30
2022-12-29T00:54:10.624Z,0.30
2022-12-29T00:56:40.344Z,0.40
2022-12-29T00:59:11.929Z,0.40
2022-12-29T01:01:41.053Z,0.40
2022-12-29T01:04:10.178Z,0.30
2022-12-29T01:06:39.624Z,0.70
2022-12-29T01:09:26.555Z,0.43
2022-12-29T01:11:56.264Z,0.35
2022-12-29T01:14:24.963Z,0.30
2022-12-29T01:16:53.516Z,0.40
2022-12-29T01:19:22.603Z,0.40
2022-12-29T01:21:51.419Z,0.30
2022-12-29T01:24:20.982Z,0.30
2022-12-29T01:26:49.554Z,0.40
2022-12-29T01:29:19.711Z,0.30
2022-12-29T01:31:48.414Z,0.30
2022-12-29T01:34:16.976Z,0.30
2022-12-29T01:36:45.546Z,0.90
2022-12-29T01:39:14.522Z,0.40
2022-12-29T01:41:43.225Z,0.30
2022-12-29T01:44:51.932Z,0.40
2022-12-29T01:47:36.090Z,0.30
2022-12-29T01:50:10.384Z,0.80
2022-12-29T01:52:44.672Z,0.40
2022-12-29T01:55:14.492Z,0.30
2022-12-29T01:57:48.676Z,0.30
2022-12-29T02:00:20.364Z,0.30
2022-12-29T02:02:52.822Z,0.40
2022-12-29T02:05:27.242Z,0.30
2022-12-29T02:07:56.096Z,0.40
2022-12-29T02:10:27.959Z,0.30
2022-12-29T02:12:56.844Z,0.70
2022-12-29T02:15:36.805Z,0.40
2022-12-29T02:18:20.740Z,1.20
2022-12-29T02:21:31.379Z,0.40
2022-12-29T02:24:39.263Z,1.45
2022-12-29T02:27:39.329Z,1.13
2022-12-29T02:30:17.652Z,0.90
2022-12-29T02:32:57.216Z,0.47
2022-12-29T02:35:32.928Z,0.70
2022-12-29T02:38:14.987Z,1.40
2022-12-29T02:40:50.473Z,0.40
2022-12-29T02:43:28.239Z,0.65
2022-12-29T02:46:00.573Z,0.40
2022-12-29T02:48:34.874Z,1.07
2022-12-29T02:51:06.064Z,0.40
2022-12-29T02:53:54.911Z,1.30
2022-12-29T02:56:23.903Z,0.50
2022-12-29T02:58:52.365Z,0.40
2022-12-29T03:01:31.787Z,0.52
2022-12-29T03:04:22.624Z,0.50
2022-12-29T03:07:01.873Z,0.50
2022-12-29T03:09:39.462Z,0.32
2022-12-29T03:12:16.964Z,1.30
2022-12-29T03:15:17.055Z,0.70
2022-12-29T03:17:57.157Z,0.90
2022-12-29T03:20:34.300Z,0.50
2022-12-29T03:23:05.781Z,0.57
2022-12-29T03:25:39.395Z,0.95
2022-12-29T03:28:11.611Z,1.35
2022-12-29T03:30:42.397Z,0.83
2022-12-29T03:33:15.199Z,0.50
2022-12-29T03:35:47.721Z,0.40
2022-12-29T03:38:19.513Z,0.70
2022-12-29T03:40:51.986Z,1.70
2022-12-29T03:43:21.196Z,0.40
2022-12-29T03:45:49.886Z,0.60
2022-12-29T03:48:18.429Z,1.00
2022-12-29T03:50:50.405Z,0.40
2022-12-29T03:53:18.978Z,1.00
2022-12-29T03:55:47.677Z,0.33
2022-12-29T03:58:16.215Z,0.80
2022-12-29T04:00:46.926Z,0.32
2022-12-29T04:03:15.494Z,0.40
2022-12-29T04:05:44.098Z,0.40
2022-12-29T04:08:14.068Z,0.70
2022-12-29T04:10:43.067Z,0.50
2022-12-29T04:13:11.673Z,0.40
2022-12-29T04:15:40.248Z,0.40
2022-12-29T04:18:08.813Z,0.40
2022-12-29T04:20:54.905Z,0.32
2022-12-29T04:23:24.773Z,0.50
2022-12-29T04:25:53.265Z,0.40
2022-12-29T04:28:22.195Z,0.50
2022-12-29T04:30:51.163Z,0.40
2022-12-29T04:33:20.219Z,0.40
2022-12-29T04:35:49.128Z,0.60
2022-12-29T04:38:18.602Z,0.50
2022-12-29T04:40:49.172Z,0.38
2022-12-29T04:43:19.632Z,0.28
2022-12-29T04:45:48.739Z,0.40
2022-12-29T04:48:17.695Z,2.38
2022-12-29T04:50:49.391Z,0.50
2022-12-29T04:53:18.339Z,0.50
2022-12-29T04:55:51.379Z,0.57
2022-12-29T04:58:22.920Z,0.70
2022-12-29T05:00:52.295Z,0.80
2022-12-29T05:03:21.034Z,0.90
2022-12-29T05:05:49.633Z,0.40
2022-12-29T05:08:21.883Z,0.65
2022-12-29T05:10:54.998Z,0.80
2022-12-29T05:13:23.552Z,0.40
2022-12-29T05:15:53.372Z,0.50
2022-12-29T05:18:22.391Z,0.40
2022-12-29T05:20:51.192Z,0.40
2022-12-29T05:23:19.743Z,0.43
2022-12-29T05:25:48.247Z,0.50
2022-12-29T05:28:18.103Z,1.30
2022-12-29T05:30:50.219Z,2.25
2022-12-29T05:33:18.823Z,0.60
2022-12-29T05:35:47.741Z,0.70
2022-12-29T05:38:16.238Z,0.37
2022-12-29T05:40:47.115Z,1.20
2022-12-29T05:43:17.019Z,0.60
2022-12-29T05:45:50.148Z,0.75
2022-12-29T05:48:18.656Z,0.83
2022-12-29T05:50:50.232Z,0.60
2022-12-29T05:53:19.207Z,0.40
2022-12-29T05:55:49.365Z,0.60
2022-12-29T05:58:19.702Z,1.70
2022-12-29T06:00:48.289Z,0.70
2022-12-29T06:03:16.915Z,0.75
2022-12-29T06:05:47.648Z,0.50
2022-12-29T06:08:16.455Z,0.77
2022-12-29T06:10:44.991Z,1.10
2022-12-29T06:13:13.526Z,0.30
2022-12-29T06:15:44.031Z,0.63
2022-12-29T06:18:19.403Z,1.30
2022-12-29T06:20:48.866Z,0.35
2022-12-29T06:23:17.608Z,0.88
2022-12-29T06:25:45.889Z,1.35
2022-12-29T06:28:14.094Z,1.90
2022-12-29T06:30:46.902Z,0.30
2022-12-29T06:33:15.498Z,0.47
2022-12-29T06:35:44.973Z,1.30
2022-12-29T06:38:13.523Z,0.50
2022-12-29T06:40:44.115Z,2.00
2022-12-29T06:43:12.424Z,0.88
2022-12-29T06:45:41.919Z,0.60
2022-12-29T06:48:11.826Z,1.30
2022-12-29T06:50:40.343Z,0.65
2022-12-29T06:53:08.842Z,0.80
2022-12-29T06:55:37.348Z,1.30
2022-12-29T06:58:05.852Z,2.60
2022-12-29T07:00:34.379Z,0.55
2022-12-29T07:03:03.006Z,1.13
2022-12-29T07:05:33.707Z,0.95
2022-12-29T07:08:02.632Z,1.00
2022-12-29T07:10:31.213Z,1.33
2022-12-29T07:12:59.748Z,1.25
2022-12-29T07:15:28.338Z,0.80
2022-12-29T07:17:56.937Z,1.27
2022-12-29T07:20:27.181Z,0.60
2022-12-29T07:22:57.338Z,0.50
2022-12-29T07:25:26.057Z,1.58
2022-12-29T07:27:54.546Z,0.60
2022-12-29T07:30:23.177Z,2.03
2022-12-29T07:32:51.652Z,1.10
2022-12-29T07:35:20.376Z,2.08
2022-12-29T07:37:48.869Z,1.30
2022-12-29T07:40:19.003Z,1.30
2022-12-29T07:42:47.587Z,1.37
2022-12-29T07:45:16.190Z,2.28
2022-12-29T07:47:44.934Z,1.58
2022-12-29T07:50:13.434Z,2.60
2022-12-29T07:52:41.974Z,2.30
2022-12-29T07:55:11.072Z,1.20
2022-12-29T07:57:40.909Z,1.60
2022-12-29T08:00:10.604Z,2.40
2022-12-29T08:02:39.292Z,0.80
2022-12-29T08:05:08.637Z,1.08
2022-12-29T08:07:37.152Z,1.15
2022-12-29T08:10:06.395Z,2.00
2022-12-29T08:12:35.022Z,0.93
2022-12-29T08:15:05.388Z,0.77
2022-12-29T08:17:34.122Z,2.00
2022-12-29T08:20:02.876Z,0.80
2022-12-29T08:22:31.444Z,3.03
2022-12-29T08:25:00.147Z,2.40
2022-12-29T08:27:29.119Z,2.33
2022-12-29T08:29:57.622Z,2.03
2022-12-29T08:32:27.606Z,2.17
2022-12-29T08:34:56.275Z,1.60
2022-12-29T08:37:29.231Z,1.77
2022-12-29T08:40:01.044Z,3.47
2022-12-29T08:42:32.006Z,2.22
2022-12-29T08:45:00.703Z,2.13
2022-12-29T08:47:30.889Z,1.95
2022-12-29T08:49:59.116Z,2.70
2022-12-29T08:52:27.652Z,2.75
2022-12-29T08:54:56.133Z,1.23
2022-12-29T08:57:24.728Z,1.90
2022-12-29T08:59:53.247Z,1.63
2022-12-29T09:02:24.662Z,2.35
2022-12-29T09:04:55.006Z,2.33
2022-12-29T09:07:23.488Z,2.30
2022-12-29T09:09:52.775Z,2.43
2022-12-29T09:12:21.339Z,2.17
2022-12-29T09:14:50.033Z,1.77
2022-12-29T09:17:36.035Z,2.45
2022-12-29T09:20:06.851Z,2.42
2022-12-29T09:22:35.120Z,4.22
2022-12-29T09:25:03.327Z,1.85
2022-12-29T09:27:31.869Z,1.87
2022-12-29T09:30:00.169Z,1.58
2022-12-29T09:32:32.775Z,1.15
2022-12-29T09:35:02.118Z,2.10
2022-12-29T09:37:31.710Z,2.53
2022-12-29T09:40:00.256Z,2.67
2022-12-29T09:42:34.766Z,3.03
2022-12-29T09:45:16.151Z,1.90
2022-12-29T09:47:45.943Z,2.33
2022-12-29T09:50:26.611Z,2.13
2022-12-29T09:53:06.238Z,3.30
2022-12-29T09:55:40.246Z,1.88
2022-12-29T09:58:16.301Z,3.33
2022-12-29T10:00:55.971Z,1.87
2022-12-29T10:03:29.800Z,2.42
2022-12-29T10:06:11.600Z,2.58
2022-12-29T10:08:46.771Z,2.03
2022-12-29T10:11:33.227Z,3.37
2022-12-29T10:14:27.184Z,3.23
2022-12-29T10:17:11.236Z,2.97
2022-12-29T10:20:08.320Z,1.60
2022-12-29T10:22:55.394Z,2.78
2022-12-29T10:25:31.212Z,2.87
2022-12-29T10:28:08.492Z,2.97
2022-12-29T10:30:37.931Z,2.67
2022-12-29T10:33:12.561Z,3.30
2022-12-29T10:35:44.139Z,2.28
2022-12-29T10:38:22.450Z,2.15
2022-12-29T10:40:59.536Z,5.93
2022-12-29T10:43:30.884Z,5.25
2022-12-29T10:46:06.147Z,3.28
2022-12-29T10:48:37.419Z,2.20
2022-12-29T10:51:09.964Z,2.55
2022-12-29T10:53:46.978Z,4.93
2022-12-29T10:56:29.917Z,1.92
2022-12-29T10:59:02.794Z,1.20
2022-12-29T11:01:44.435Z,2.75
2022-12-29T11:04:31.088Z,3.83
2022-12-29T11:07:00.307Z,2.80
2022-12-29T11:09:48.159Z,2.20
2022-12-29T11:12:29.963Z,2.92
2022-12-29T11:15:15.916Z,2.70
2022-12-29T11:17:49.426Z,3.35
2022-12-29T11:20:34.599Z,2.63
2022-12-29T11:23:04.397Z,3.10
2022-12-29T11:25:33.312Z,2.25
2022-12-29T11:28:15.871Z,2.72
2022-12-29T11:30:45.044Z,3.67
2022-12-29T11:33:13.555Z,2.08
2022-12-29T11:35:44.124Z,3.85
2022-12-29T11:38:22.855Z,2.93
2022-12-29T11:40:51.810Z,2.13
2022-12-29T11:43:27.984Z,3.33
2022-12-29T11:45:57.514Z,5.45
2022-12-29T11:48:29.746Z,2.25
2022-12-29T11:51:01.320Z,2.67
2022-12-29T11:53:39.713Z,3.42
2022-12-29T11:56:12.829Z,3.60
2022-12-29T11:58:42.593Z,2.60
2022-12-29T12:01:20.650Z,3.45
2022-12-29T12:03:58.972Z,2.92
2022-12-29T12:06:29.589Z,3.80
2022-12-29T12:09:01.717Z,3.50
2022-12-29T12:11:37.970Z,2.38
2022-12-29T12:14:16.852Z,2.30
2022-12-29T12:16:52.708Z,2.27
2022-12-29T12:19:34.666Z,1.80
2022-12-29T12:22:12.872Z,3.90
2022-12-29T12:24:47.509Z,3.80
2022-12-29T12:27:21.400Z,2.30
2022-12-29T12:30:00.172Z,2.83
2022-12-29T12:32:44.146Z,2.72
2022-12-29T12:35:21.351Z,4.53
2022-12-29T12:38:08.446Z,2.37
2022-12-29T12:41:07.089Z,3.08
2022-12-29T12:43:48.793Z,1.30
2022-12-29T12:46:51.229Z,2.87
2022-12-29T12:49:58.415Z,4.18
2022-12-29T12:52:40.214Z,2.38
2022-12-29T12:55:37.709Z,2.50
2022-12-29T12:58:14.829Z,4.88
2022-12-29T13:00:56.426Z,7.50
2022-12-29T13:03:38.015Z,1.85
2022-12-29T13:06:24.244Z,1.83
2022-12-29T13:09:10.667Z,2.50
2022-12-29T13:11:54.295Z,1.63
2022-12-29T13:14:35.578Z,4.37
2022-12-29T13:17:11.571Z,2.13
2022-12-29T13:19:50.172Z,3.90
2022-12-29T13:22:26.094Z,2.13
2022-12-29T13:25:09.107Z,3.38
2022-12-29T13:27:45.867Z,4.13
2022-12-29T13:30:20.126Z,3.45
2022-12-29T13:33:05.388Z,2.22
2022-12-29T13:35:54.403Z,4.47
2022-12-29T13:38:28.178Z,2.50
2022-12-29T13:41:01.573Z,2.40
2022-12-29T13:43:36.614Z,1.35
2022-12-29T13:46:11.865Z,3.13
2022-12-29T13:48:48.493Z,3.57
2022-12-29T13:51:25.677Z,1.88
2022-12-29T13:54:07.551Z,1.85
2022-12-29T13:56:41.127Z,1.10
2022-12-29T13:59:22.897Z,1.70
2022-12-29T14:01:58.708Z,3.42
2022-12-29T14:04:29.997Z,2.78
2022-12-29T14:07:14.744Z,3.17
2022-12-29T14:09:50.943Z,3.72
2022-12-29T14:12:35.158Z,2.93
2022-12-29T14:15:25.353Z,2.13
2022-12-29T14:18:17.894Z,2.83
2022-12-29T14:20:56.976Z,3.40
2022-12-29T14:23:38.929Z,1.33
2022-12-29T14:26:20.277Z,1.92
2022-12-29T14:28:49.767Z,3.00
2022-12-29T14:31:45.006Z,2.13
2022-12-29T14:34:51.807Z,2.20
2022-12-29T14:37:28.239Z,1.27
2022-12-29T14:40:19.599Z,3.72
2022-12-29T14:42:48.909Z,2.90
2022-12-29T14:45:30.930Z,3.00
2022-12-29T14:48:00.214Z,2.55
2022-12-29T14:50:40.715Z,2.38
2022-12-29T14:53:31.773Z,4.85
2022-12-29T14:56:02.097Z,3.37
2022-12-29T14:58:32.991Z,2.90
2022-12-29T15:01:02.531Z,1.98
2022-12-29T15:03:34.533Z,3.55
2022-12-29T15:06:10.282Z,2.70
2022-12-29T15:08:42.206Z,2.60
2022-12-29T15:11:19.303Z,2.20
2022-12-29T15:13:49.665Z,1.60
2022-12-29T15:16:27.017Z,2.83
2022-12-29T15:18:55.970Z,2.42
2022-12-29T15:21:28.351Z,1.45
2022-12-29T15:23:56.800Z,4.78
2022-12-29T15:26:39.357Z,1.33
2022-12-29T15:29:07.632Z,1.40
2022-12-29T15:31:36.053Z,3.47
2022-12-29T15:34:13.574Z,2.05
2022-12-29T15:36:42.794Z,3.15
2022-12-29T15:39:21.097Z,1.50
2022-12-29T15:42:05.172Z,1.87
2022-12-29T15:44:39.749Z,2.45
2022-12-29T15:47:14.139Z,2.72
2022-12-29T15:49:45.031Z,0.93
2022-12-29T15:52:19.875Z,2.80
2022-12-29T15:54:51.350Z,2.60
2022-12-29T15:57:26.557Z,1.30
2022-12-29T15:59:55.834Z,1.02
2022-12-29T16:02:25.517Z,2.95
2022-12-29T16:05:17.232Z,1.42
2022-12-29T16:07:56.168Z,3.05
2022-12-29T16:10:31.224Z,1.30
2022-12-29T16:13:07.754Z,1.33
2022-12-29T16:15:36.640Z,1.38
2022-12-29T16:18:05.265Z,1.52
2022-12-29T16:20:42.705Z,0.57
2022-12-29T16:23:22.229Z,1.92
2022-12-29T16:25:50.837Z,0.70
2022-12-29T16:28:24.594Z,2.90
2022-12-29T16:31:03.923Z,4.80
2022-12-29T16:33:40.365Z,1.50
2022-12-29T16:36:32.249Z,0.93
2022-12-29T16:39:27.428Z,3.07
2022-12-29T16:41:57.099Z,2.83
2022-12-29T16:44:29.198Z,2.80
2022-12-29T16:47:08.382Z,1.88
2022-12-29T16:49:40.435Z,2.10
2022-12-29T16:52:20.014Z,5.57
2022-12-29T16:54:54.437Z,3.50
2022-12-29T16:57:30.257Z,2.80
2022-12-29T17:00:06.120Z,3.30
2022-12-29T17:02:46.106Z,3.40
2022-12-29T17:05:16.364Z,3.95
2022-12-29T17:07:45.012Z,4.40
2022-12-29T17:10:13.653Z,2.05
2022-12-29T17:12:44.813Z,0.50
2022-12-29T17:15:21.704Z,0.40
2022-12-29T17:17:52.054Z,0.95
2022-12-29T17:20:23.358Z,0.63
2022-12-29T17:22:54.142Z,0.90
2022-12-29T17:25:25.735Z,0.50
2022-12-29T17:27:58.079Z,0.67
2022-12-29T17:30:33.609Z,0.70
2022-12-29T17:33:06.694Z,0.70
2022-12-29T17:35:34.865Z,3.35
2022-12-29T17:38:03.082Z,3.00
2022-12-29T17:40:34.366Z,1.98
2022-12-29T17:43:02.904Z,2.30
2022-12-29T17:45:34.184Z,2.45
2022-12-29T17:48:02.845Z,1.17
2022-12-29T17:50:32.727Z,0.90
2022-12-29T17:53:05.120Z,0.50
2022-12-29T17:55:37.992Z,0.70
2022-12-29T17:58:21.110Z,1.95
2022-12-29T18:00:52.698Z,0.77
2022-12-29T18:03:25.284Z,0.40
2022-12-29T18:05:53.958Z,0.68
2022-12-29T18:08:22.736Z,1.23
2022-12-29T18:10:53.860Z,0.80
2022-12-29T18:13:25.906Z,0.70
2022-12-29T18:15:58.964Z,0.68
2022-12-29T18:18:29.071Z,0.60
2022-12-29T18:21:01.035Z,0.50
2022-12-29T18:23:32.374Z,0.77
2022-12-29T18:26:03.577Z,1.20
2022-12-29T18:28:32.748Z,1.23
2022-12-29T18:31:03.809Z,1.70
2022-12-29T18:33:32.463Z,3.42
2022-12-29T18:36:02.554Z,3.70
2022-12-29T18:38:31.895Z,2.63
2022-12-29T18:41:01.063Z,1.10
2022-12-29T18:43:29.612Z,1.80
2022-12-29T18:45:58.083Z,1.33
2022-12-29T18:48:28.089Z,1.90
2022-12-29T18:50:56.599Z,3.17
2022-12-29T18:53:25.898Z,3.08
2022-12-29T18:55:55.265Z,4.55
2022-12-29T18:58:26.733Z,3.28
2022-12-29T19:00:57.726Z,1.40
2022-12-29T19:03:27.977Z,2.60
2022-12-29T19:05:56.527Z,4.10
2022-12-29T19:08:25.808Z,2.90
2022-12-29T19:10:54.760Z,2.85
2022-12-29T19:13:28.823Z,6.40
2022-12-29T19:15:58.013Z,4.05
2022-12-29T19:18:47.472Z,2.75
2022-12-29T19:21:19.946Z,4.40
2022-12-29T19:23:48.852Z,4.55
2022-12-29T19:26:30.021Z,2.60
2022-12-29T19:28:58.853Z,2.60
2022-12-29T19:31:27.439Z,3.25
2022-12-29T19:33:57.481Z,2.90
2022-12-29T19:36:25.981Z,4.30
2022-12-29T19:38:55.822Z,3.75
2022-12-29T19:41:24.484Z,5.00
2022-12-29T19:43:53.043Z,4.63
2022-12-29T19:46:23.310Z,5.13
2022-12-29T19:48:52.424Z,5.07
2022-12-29T19:51:22.547Z,3.05
2022-12-29T19:53:51.078Z,1.02
2022-12-29T19:56:19.890Z,3.28
2022-12-29T19:58:48.370Z,1.15
2022-12-29T20:01:19.511Z,1.75
2022-12-29T20:03:49.488Z,2.15
2022-12-29T20:06:18.241Z,2.83
2022-12-29T20:08:48.206Z,2.30
2022-12-29T20:11:18.622Z,3.90
2022-12-29T20:13:47.983Z,3.15
2022-12-29T20:16:18.225Z,3.03
2022-12-29T20:18:47.507Z,4.70
2022-12-29T20:21:18.566Z,1.08
2022-12-29T20:23:49.784Z,1.30
2022-12-29T20:26:20.949Z,1.13
2022-12-29T20:28:50.665Z,2.95
2022-12-29T20:31:22.091Z,2.22
2022-12-29T20:33:50.665Z,1.90
2022-12-29T20:36:21.245Z,0.60
2022-12-29T20:38:52.898Z,2.72
2022-12-29T20:41:22.827Z,2.25
2022-12-29T20:43:53.117Z,1.85
2022-12-29T20:46:26.468Z,1.80
2022-12-29T20:48:59.519Z,1.90
2022-12-29T20:51:28.574Z,5.07
2022-12-29T20:53:58.801Z,2.70
2022-12-29T20:56:29.173Z,1.90
2022-12-29T20:59:26.493Z,1.97
2022-12-29T21:01:46.575Z,1.48
2022-12-29T21:04:15.155Z,1.13
2022-12-29T21:06:43.695Z,4.03
2022-12-29T21:09:13.560Z,2.67
2022-12-29T21:11:42.043Z,3.13
2022-12-29T21:14:10.545Z,0.75
2022-12-29T21:16:39.136Z,1.85
2022-12-29T21:19:07.643Z,2.55
2022-12-29T21:21:36.118Z,2.70
2022-12-29T21:24:06.299Z,2.83
2022-12-29T21:26:36.283Z,2.40
2022-12-29T21:29:05.100Z,4.13
2022-12-29T21:31:35.525Z,1.88
2022-12-29T21:34:05.416Z,4.05
2022-12-29T21:36:34.728Z,5.53
2022-12-29T21:39:04.302Z,1.88
2022-12-29T21:41:33.154Z,3.80
2022-12-29T21:44:20.429Z,4.13
2022-12-29T21:46:48.950Z,1.08
2022-12-29T21:49:17.442Z,2.13
2022-12-29T21:51:52.271Z,2.72
2022-12-29T21:54:40.253Z,4.00
2022-12-29T21:57:09.562Z,2.00
2022-12-29T21:59:56.974Z,3.40
2022-12-29T22:02:45.011Z,3.42
2022-12-29T22:05:33.927Z,2.60
2022-12-29T22:08:20.601Z,0.77
2022-12-29T22:11:07.021Z,0.90
2022-12-29T22:13:37.485Z,1.55
2022-12-29T22:16:09.121Z,1.38
2022-12-29T22:18:37.753Z,1.75
2022-12-29T22:21:07.085Z,1.70
2022-12-29T22:23:35.630Z,3.67
2022-12-29T22:26:05.731Z,1.23
2022-12-29T22:28:35.943Z,4.47
2022-12-29T22:31:06.001Z,2.47
2022-12-29T22:33:34.678Z,2.95
2022-12-29T22:36:03.229Z,5.32
2022-12-29T22:38:31.721Z,4.55
2022-12-29T22:41:01.353Z,4.90
2022-12-29T22:43:30.573Z,4.70
2022-12-29T22:46:04.437Z,2.80
2022-12-29T22:48:35.718Z,4.40
2022-12-29T22:51:04.738Z,2.38
2022-12-29T22:53:33.277Z,4.00
2022-12-29T22:56:06.699Z,3.70
2022-12-29T22:58:35.684Z,1.35
2022-12-29T23:01:05.538Z,3.17
2022-12-29T23:03:35.456Z,4.15
2022-12-29T23:06:05.868Z,2.92
2022-12-29T23:08:36.469Z,2.70
2022-12-29T23:11:06.452Z,4.17
2022-12-29T23:13:35.420Z,4.43
2022-12-29T23:16:04.031Z,2.58
2022-12-29T23:18:33.959Z,4.97
2022-12-29T23:21:02.579Z,2.97
2022-12-29T23:23:49.742Z,0.80
2022-12-29T23:26:18.850Z,3.83
2022-12-29T23:28:48.115Z,1.00
2022-12-29T23:31:17.086Z,1.73
2022-12-29T23:33:47.007Z,2.05
2022-12-29T23:36:15.880Z,4.20
2022-12-29T23:38:44.445Z,3.65
2022-12-29T23:41:12.984Z,1.42
2022-12-29T23:43:41.498Z,4.82
2022-12-29T23:46:11.131Z,3.28
2022-12-29T23:48:39.893Z,0.57
2022-12-29T23:51:10.321Z,2.50
2022-12-29T23:53:41.574Z,4.27
2022-12-29T23:56:13.442Z,0.80
2022-12-29T23:58:41.982Z,4.63
